createdAt,value
2019-01-04T00:00:43.406Z,103519.16
2019-01-04T00:03:12.640Z,103516.83
2019-01-04T00:05:41.861Z,103517.30
2019-01-04T00:08:11.008Z,103509.33
2019-01-04T00:10:40.286Z,103505.27
2019-01-04T00:13:09.657Z,103493.92
2019-01-04T00:15:38.864Z,103494.51
2019-01-04T00:18:08.004Z,103500.08
2019-01-04T00:20:37.296Z,103498.41
2019-01-04T00:23:06.556Z,103504.70
2019-01-04T00:25:35.656Z,103498.44
2019-01-04T00:28:04.843Z,103492.45
2019-01-04T00:30:33.992Z,103489.17
2019-01-04T00:33:03.197Z,103492.74
2019-01-04T00:35:32.346Z,103484.98
2019-01-04T00:38:01.742Z,103482.70
2019-01-04T00:40:30.961Z,103482.28
2019-01-04T00:43:00.174Z,103482.70
2019-01-04T00:45:29.344Z,103486.44
2019-01-04T00:47:58.849Z,103484.70
2019-01-04T00:50:28.226Z,103486.82
2019-01-04T00:52:57.363Z,103492.45
2019-01-04T00:56:17.735Z,103492.22
2019-01-04T00:59:22.910Z,103494.48
2019-01-04T01:02:37.710Z,103510.66
2019-01-04T01:05:32.916Z,103515.73
2019-01-04T01:08:28.409Z,103510.45
2019-01-04T01:11:42.297Z,103511.07
2019-01-04T01:15:01.453Z,103498.53
2019-01-04T01:17:54.330Z,103496.54
2019-01-04T01:21:25.691Z,103512.16
2019-01-04T01:24:34.701Z,103509.55
2019-01-04T01:27:43.965Z,103513.59
2019-01-04T01:31:06.508Z,103504.97
2019-01-04T01:34:00.769Z,103515.72
2019-01-04T01:37:13.309Z,103501.65
2019-01-04T01:40:19.223Z,103491.92
2019-01-04T01:43:23.702Z,103489.02
2019-01-04T01:46:17.631Z,103492.13
2019-01-04T01:49:28.004Z,103498.20
2019-01-04T01:52:20.708Z,103493.53
2019-01-04T01:54:49.917Z,103496.64
2019-01-04T01:57:19.054Z,103486.92
2019-01-04T01:59:48.315Z,103493.76
2019-01-04T02:02:17.553Z,103493.37
2019-01-04T02:04:46.737Z,103499.45
2019-01-04T02:07:15.878Z,103489.08
2019-01-04T02:09:45.236Z,103490.01
2019-01-04T02:12:14.666Z,103496.88
2019-01-04T02:14:43.827Z,103489.22
2019-01-04T02:17:13.084Z,103487.67
2019-01-04T02:19:42.453Z,103493.27
2019-01-04T02:22:11.794Z,103496.75
2019-01-04T02:24:40.944Z,103490.03
2019-01-04T02:27:10.133Z,103491.74
2019-01-04T02:29:39.277Z,103492.32
2019-01-04T02:32:08.413Z,103484.64
2019-01-04T02:34:37.591Z,103484.58
2019-01-04T02:37:06.786Z,103483.27
2019-01-04T02:39:35.995Z,103484.58
2019-01-04T02:42:05.202Z,103489.24
2019-01-04T02:44:34.443Z,103492.22
2019-01-04T02:47:03.585Z,103495.00
2019-01-04T02:49:33.023Z,103500.65
2019-01-04T02:52:02.377Z,103500.55
2019-01-04T02:54:31.508Z,103502.24
2019-01-04T02:57:00.698Z,103495.02
2019-01-04T02:59:30.327Z,103490.31
2019-01-04T03:01:59.468Z,103482.62
2019-01-04T03:04:28.698Z,103486.59
2019-01-04T03:06:58.189Z,103486.23
2019-01-04T03:09:27.338Z,103476.84
2019-01-04T03:11:56.486Z,103475.52
2019-01-04T03:14:25.651Z,103477.69
2019-01-04T03:16:54.791Z,103467.91
2019-01-04T03:19:23.978Z,103457.61
2019-01-04T03:21:53.152Z,103466.17
2019-01-04T03:24:22.319Z,103458.05
2019-01-04T03:26:51.470Z,103451.16
2019-01-04T03:29:20.620Z,103452.88
2019-01-04T03:31:49.765Z,103448.17
2019-01-04T03:34:18.920Z,103443.02
2019-01-04T03:36:48.090Z,103437.44
2019-01-04T03:39:17.230Z,103439.19
2019-01-04T03:41:46.369Z,103434.04
2019-01-04T03:44:15.558Z,103428.88
2019-01-04T03:46:44.811Z,103428.47
2019-01-04T03:49:14.252Z,103411.68
2019-01-04T03:51:43.495Z,103406.94
2019-01-04T03:54:12.635Z,103398.84
2019-01-04T03:56:41.835Z,103402.70
2019-01-04T03:59:10.999Z,103409.16
2019-01-04T04:01:40.128Z,103399.22
2019-01-04T04:04:09.321Z,103406.17
2019-01-04T04:06:38.466Z,103411.80
2019-01-04T04:09:08.161Z,103406.66
2019-01-04T04:11:37.290Z,103408.09
2019-01-04T04:14:06.467Z,103409.02
2019-01-04T04:16:35.595Z,103407.36
2019-01-04T04:19:04.716Z,103405.59
2019-01-04T04:21:34.127Z,103409.09
2019-01-04T04:24:03.269Z,103393.16
2019-01-04T04:26:32.478Z,103392.43
2019-01-04T04:29:02.533Z,103394.14
2019-01-04T04:31:31.779Z,103397.58
2019-01-04T04:34:00.915Z,103395.06
2019-01-04T04:36:30.738Z,103399.83
2019-01-04T04:38:59.850Z,103403.30
2019-01-04T04:41:28.992Z,103403.72
2019-01-04T04:43:58.149Z,103408.96
2019-01-04T04:46:27.320Z,103402.91
2019-01-04T04:48:56.614Z,103395.58
2019-01-04T04:51:25.755Z,103392.14
2019-01-04T04:53:54.954Z,103385.76
2019-01-04T04:56:24.114Z,103393.51
2019-01-04T04:58:53.254Z,103394.44
2019-01-04T05:01:22.396Z,103392.66
2019-01-04T05:03:51.583Z,103375.07
2019-01-04T05:06:20.719Z,103371.55
2019-01-04T05:08:49.864Z,103363.85
2019-01-04T05:11:19.054Z,103357.42
2019-01-04T05:13:48.301Z,103347.54
2019-01-04T05:16:17.452Z,103341.91
2019-01-04T05:18:46.717Z,103345.81
2019-01-04T05:21:15.907Z,103353.59
2019-01-04T05:23:45.045Z,103351.89
2019-01-04T05:26:14.220Z,103357.55
2019-01-04T05:28:43.398Z,103349.00
2019-01-04T05:31:12.562Z,103355.48
2019-01-04T05:33:41.791Z,103354.61
2019-01-04T05:36:10.956Z,103346.03
2019-01-04T05:38:40.141Z,103334.00
2019-01-04T05:41:09.321Z,103327.50
2019-01-04T05:43:38.456Z,103328.39
2019-01-04T05:46:07.591Z,103318.51
2019-01-04T05:48:36.801Z,103326.26
2019-01-04T05:51:06.146Z,103324.98
2019-01-04T05:53:35.368Z,103318.52
2019-01-04T05:56:04.495Z,103324.58
2019-01-04T05:58:33.730Z,103318.58
2019-01-04T06:01:02.900Z,103323.34
2019-01-04T06:03:32.151Z,103327.22
2019-01-04T06:06:02.243Z,103336.71
2019-01-04T06:08:31.379Z,103331.10
2019-01-04T06:11:00.528Z,103332.38
2019-01-04T06:13:29.709Z,103333.69
2019-01-04T06:15:58.836Z,103346.20
2019-01-04T06:18:27.963Z,103350.05
2019-01-04T06:20:57.127Z,103357.39
2019-01-04T06:23:26.309Z,103344.91
2019-01-04T06:25:55.436Z,103347.95
2019-01-04T06:28:24.619Z,103350.95
2019-01-04T06:30:53.775Z,103367.34
2019-01-04T06:33:22.957Z,103347.08
2019-01-04T06:35:52.508Z,103347.53
2019-01-04T06:38:21.666Z,103351.42
2019-01-04T06:40:50.796Z,103346.25
2019-01-04T06:43:20.120Z,103332.87
2019-01-04T06:45:51.766Z,103342.38
2019-01-04T06:48:20.895Z,103344.13
2019-01-04T06:50:50.341Z,103340.66
2019-01-04T06:53:19.515Z,103355.34
2019-01-04T06:55:59.689Z,103357.06
2019-01-04T06:58:28.860Z,103358.35
2019-01-04T07:00:58.078Z,103367.41
2019-01-04T07:03:27.209Z,103361.35
2019-01-04T07:05:56.455Z,103372.59
2019-01-04T07:08:25.616Z,103369.13
2019-01-04T07:10:54.742Z,103369.55
2019-01-04T07:13:24.175Z,103365.25
2019-01-04T07:15:53.317Z,103370.44
2019-01-04T07:18:22.465Z,103368.70
2019-01-04T07:20:51.675Z,103374.30
2019-01-04T07:23:20.916Z,103371.27
2019-01-04T07:25:50.080Z,103379.06
2019-01-04T07:28:19.561Z,103370.86
2019-01-04T07:30:48.752Z,103366.53
2019-01-04T07:33:17.964Z,103378.62
2019-01-04T07:35:47.360Z,103375.59
2019-01-04T07:38:16.564Z,103364.39
2019-01-04T07:40:45.731Z,103367.41
2019-01-04T07:43:16.591Z,103369.10
2019-01-04T07:45:45.890Z,103367.38
2019-01-04T07:48:15.126Z,103363.07
2019-01-04T07:50:44.429Z,103361.74
2019-01-04T07:53:13.575Z,103363.44
2019-01-04T07:55:42.710Z,103358.28
2019-01-04T07:58:11.985Z,103357.02
2019-01-04T08:00:41.232Z,103349.22
2019-01-04T08:03:16.094Z,103345.34
2019-01-04T08:05:45.238Z,103350.55
2019-01-04T08:08:14.371Z,103349.69
2019-01-04T08:10:43.598Z,103348.80
2019-01-04T08:13:12.720Z,103344.48
2019-01-04T08:15:41.887Z,103338.00
2019-01-04T08:18:11.112Z,103336.28
2019-01-04T08:20:40.254Z,103338.42
2019-01-04T08:23:09.413Z,103355.69
2019-01-04T08:25:38.640Z,103356.99
2019-01-04T08:28:07.802Z,103357.85
2019-01-04T08:30:36.960Z,103353.52
2019-01-04T08:33:06.162Z,103346.62
2019-01-04T08:35:35.389Z,103348.78
2019-01-04T08:38:04.564Z,103352.69
2019-01-04T08:40:33.684Z,103353.11
2019-01-04T08:43:02.886Z,103350.96
2019-01-04T08:45:32.009Z,103344.48
2019-01-04T08:48:01.139Z,103337.61
2019-01-04T08:50:30.339Z,103340.64
2019-01-04T08:52:59.944Z,103340.64
2019-01-04T08:55:30.635Z,103322.09
2019-01-04T08:57:59.769Z,103319.11
2019-01-04T09:00:28.927Z,103325.09
2019-01-04T09:02:58.388Z,103318.24
2019-01-04T09:05:27.517Z,103311.73
2019-01-04T09:07:56.662Z,103314.72
2019-01-04T09:10:26.003Z,103325.93
2019-01-04T09:12:55.176Z,103323.38
2019-01-04T09:15:24.547Z,103311.75
2019-01-04T09:17:53.717Z,103317.35
2019-01-04T09:20:22.904Z,103301.83
2019-01-04T09:22:52.160Z,103297.51
2019-01-04T09:25:21.497Z,103287.61
2019-01-04T09:27:50.708Z,103282.42
2019-01-04T09:30:19.995Z,103291.50
2019-01-04T09:32:49.225Z,103289.77
2019-01-04T09:35:19.154Z,103287.20
2019-01-04T09:37:48.325Z,103288.48
2019-01-04T09:40:17.507Z,103291.94
2019-01-04T09:42:48.284Z,103285.88
2019-01-04T09:45:17.459Z,103283.73
2019-01-04T09:47:46.597Z,103279.84
2019-01-04T09:50:17.652Z,103279.00
2019-01-04T09:52:46.934Z,103267.34
2019-01-04T09:55:16.132Z,103263.46
2019-01-04T09:57:45.378Z,103258.29
2019-01-04T10:00:15.128Z,103254.84
2019-01-04T10:02:44.260Z,103253.98
2019-01-04T10:05:13.664Z,103255.70
2019-01-04T10:07:42.824Z,103254.41
2019-01-04T10:10:12.824Z,103244.93
2019-01-04T10:12:42.140Z,103238.03
2019-01-04T10:15:14.346Z,103237.17
2019-01-04T10:17:43.572Z,103230.71
2019-01-04T10:20:12.833Z,103224.67
2019-01-04T10:22:42.102Z,103228.11
2019-01-04T10:25:11.338Z,103225.95
2019-01-04T10:27:40.565Z,103233.30
2019-01-04T10:30:12.801Z,103228.53
2019-01-04T10:32:41.976Z,103220.37
2019-01-04T10:35:11.156Z,103207.42
2019-01-04T10:37:40.468Z,103215.62
2019-01-04T10:40:11.238Z,103209.15
2019-01-04T10:42:40.544Z,103198.77
2019-01-04T10:45:09.693Z,103199.64
2019-01-04T10:47:38.939Z,103204.81
2019-01-04T10:50:08.102Z,103197.08
2019-01-04T10:52:37.265Z,103189.72
2019-01-04T10:55:06.517Z,103198.80
2019-01-04T10:57:35.673Z,103197.05
2019-01-04T11:00:05.661Z,103200.08
2019-01-04T11:02:35.294Z,103195.75
2019-01-04T11:05:04.751Z,103197.05
2019-01-04T11:07:33.897Z,103200.94
2019-01-04T11:10:03.064Z,103191.88
2019-01-04T11:12:32.384Z,103179.80
2019-01-04T11:15:02.914Z,103178.95
2019-01-04T11:17:32.234Z,103175.93
2019-01-04T11:20:02.631Z,103157.77
2019-01-04T11:23:04.331Z,103149.60
2019-01-04T11:25:56.901Z,103133.17
2019-01-04T11:29:00.276Z,103128.45
2019-01-04T11:31:47.877Z,103127.13
2019-01-04T11:34:58.544Z,103124.97
2019-01-04T11:37:41.229Z,103127.13
2019-01-04T11:40:50.597Z,103124.11
2019-01-04T11:43:57.706Z,103124.11
2019-01-04T11:47:02.537Z,103125.41
2019-01-04T11:49:56.986Z,103122.38
2019-01-04T11:52:32.083Z,103115.05
2019-01-04T11:55:02.251Z,103105.13
2019-01-04T11:57:31.525Z,103101.66
2019-01-04T12:00:00.673Z,103095.61
2019-01-04T12:02:29.835Z,103088.28
2019-01-04T12:05:01.707Z,103093.46
2019-01-04T12:07:31.004Z,103093.47
2019-01-04T12:10:00.239Z,103086.98
2019-01-04T12:12:29.403Z,103090.45
2019-01-04T12:15:02.335Z,103086.98
2019-01-04T12:17:31.538Z,103073.99
2019-01-04T12:20:00.715Z,103074.47
2019-01-04T12:22:30.167Z,103066.70
2019-01-04T12:24:59.442Z,103071.45
2019-01-04T12:27:28.588Z,103050.72
2019-01-04T12:29:57.764Z,103052.84
2019-01-04T12:32:26.996Z,103041.19
2019-01-04T12:34:56.152Z,103032.97
2019-01-04T12:37:25.336Z,103036.42
2019-01-04T12:39:54.479Z,103036.44
2019-01-04T12:42:23.628Z,103030.39
2019-01-04T12:44:52.806Z,103041.16
2019-01-04T12:47:21.954Z,103026.06
2019-01-04T12:49:51.189Z,103030.37
2019-01-04T12:52:20.425Z,103020.88
2019-01-04T12:54:49.594Z,103028.22
2019-01-04T12:57:19.046Z,103027.80
2019-01-04T12:59:48.186Z,103025.65
2019-01-04T13:02:17.320Z,103024.77
2019-01-04T13:04:46.935Z,103029.51
2019-01-04T13:07:16.170Z,103033.83
2019-01-04T13:09:45.300Z,103023.03
2019-01-04T13:12:15.385Z,103022.61
2019-01-04T13:14:44.646Z,103033.39
2019-01-04T13:17:13.843Z,103032.95
2019-01-04T13:19:42.976Z,103038.55
2019-01-04T13:22:12.141Z,103029.87
2019-01-04T13:24:41.318Z,103009.63
2019-01-04T13:27:10.486Z,103021.23
2019-01-04T13:29:39.600Z,103009.13
2019-01-04T13:32:09.133Z,103012.16
2019-01-04T13:34:38.258Z,103006.09
2019-01-04T13:37:07.412Z,103011.70
2019-01-04T13:39:36.592Z,103001.33
2019-01-04T13:42:05.761Z,103014.66
2019-01-04T13:44:34.946Z,103005.20
2019-01-04T13:47:04.096Z,103011.27
2019-01-04T13:49:33.235Z,103005.66
2019-01-04T13:52:02.540Z,103001.33
2019-01-04T13:54:31.690Z,103006.52
2019-01-04T13:57:02.728Z,103007.81
2019-01-04T13:59:31.896Z,103010.87
2019-01-04T14:02:01.040Z,103008.69
2019-01-04T14:04:30.466Z,103010.44
2019-01-04T14:06:59.682Z,103022.09
2019-01-04T14:09:28.869Z,103016.91
2019-01-04T14:11:58.031Z,103016.48
2019-01-04T14:14:27.155Z,103009.58
2019-01-04T14:16:57.626Z,103020.81
2019-01-04T14:19:26.764Z,103022.97
2019-01-04T14:21:55.902Z,103012.60
2019-01-04T14:24:25.093Z,103020.80
2019-01-04T14:26:54.250Z,103014.38
2019-01-04T14:29:23.460Z,103014.81
2019-01-04T14:31:52.594Z,103025.60
2019-01-04T14:34:21.781Z,103016.10
2019-01-04T14:36:50.980Z,103020.85
2019-01-04T14:39:20.257Z,103034.20
2019-01-04T14:41:49.448Z,103037.65
2019-01-04T14:44:18.914Z,103031.59
2019-01-04T14:46:48.076Z,103029.86
2019-01-04T14:49:17.380Z,103034.17
2019-01-04T14:51:46.551Z,103035.05
2019-01-04T14:54:15.755Z,103026.84
2019-01-04T14:56:44.898Z,103037.63
2019-01-04T14:59:14.236Z,103041.51
2019-01-04T15:01:43.436Z,103040.64
2019-01-04T15:04:12.609Z,103044.09
2019-01-04T15:06:41.773Z,103026.81
2019-01-04T15:09:10.972Z,103021.22
2019-01-04T15:11:40.256Z,103009.55
2019-01-04T15:14:09.416Z,103000.48
2019-01-04T15:16:38.883Z,102987.09
2019-01-04T15:19:08.021Z,102991.85
2019-01-04T15:21:37.251Z,103001.36
2019-01-04T15:24:06.414Z,102994.44
2019-01-04T15:26:35.561Z,103000.92
2019-01-04T15:29:07.866Z,102997.47
2019-01-04T15:31:37.148Z,103001.80
2019-01-04T15:34:06.348Z,102994.02
2019-01-04T15:36:35.487Z,103004.81
2019-01-04T15:39:06.437Z,103002.66
2019-01-04T15:41:35.715Z,102998.76
2019-01-04T15:44:04.892Z,103000.06
2019-01-04T15:46:34.043Z,103013.88
2019-01-04T15:49:03.563Z,103007.41
2019-01-04T15:51:32.834Z,103012.16
2019-01-04T15:54:02.107Z,103004.38
2019-01-04T15:56:31.295Z,102995.30
2019-01-04T15:59:00.433Z,102996.59
2019-01-04T16:01:30.026Z,102988.38
2019-01-04T16:03:59.175Z,102985.78
2019-01-04T16:06:28.317Z,102988.38
2019-01-04T16:08:57.505Z,102994.86
2019-01-04T16:11:26.640Z,102990.10
2019-01-04T16:13:55.856Z,102988.38
2019-01-04T16:16:25.106Z,102986.64
2019-01-04T16:18:54.290Z,102980.16
2019-01-04T16:21:23.456Z,102975.41
2019-01-04T16:23:52.667Z,102983.60
2019-01-04T16:26:22.135Z,102989.67
2019-01-04T16:28:51.385Z,102994.84
2019-01-04T16:31:20.578Z,102977.58
2019-01-04T16:33:49.871Z,102982.77
2019-01-04T16:36:19.035Z,102974.11
2019-01-04T16:38:48.189Z,102961.10
2019-01-04T16:41:18.283Z,102971.05
2019-01-04T16:43:47.557Z,102973.20
2019-01-04T16:46:16.718Z,102974.05
2019-01-04T16:48:45.869Z,102964.98
2019-01-04T16:51:15.578Z,102960.23
2019-01-04T16:53:44.747Z,102957.70
2019-01-04T16:56:14.007Z,102949.86
2019-01-04T16:58:43.151Z,102954.63
2019-01-04T17:01:12.440Z,102953.75
2019-01-04T17:03:41.600Z,102954.63
2019-01-04T17:06:10.746Z,102955.11
2019-01-04T17:08:39.943Z,102943.89
2019-01-04T17:11:09.224Z,102951.17
2019-01-04T17:13:38.486Z,102947.70
2019-01-04T17:16:07.930Z,102938.20
2019-01-04T17:18:37.254Z,102942.95
2019-01-04T17:21:06.501Z,102940.85
2019-01-04T17:23:35.797Z,102943.00
2019-01-04T17:26:05.292Z,102933.00
2019-01-04T17:28:34.446Z,102926.97
2019-01-04T17:31:03.663Z,102933.43
2019-01-04T17:33:32.994Z,102936.47
2019-01-04T17:36:02.139Z,102935.16
2019-01-04T17:38:31.483Z,102929.52
2019-01-04T17:41:00.742Z,102941.22
2019-01-04T17:43:31.270Z,102925.64
2019-01-04T17:46:00.425Z,102931.25
2019-01-04T17:48:29.765Z,102920.45
2019-01-04T17:50:58.944Z,102926.95
2019-01-04T17:53:28.083Z,102932.53
2019-01-04T17:55:57.272Z,102930.81
2019-01-04T17:58:26.500Z,102929.94
2019-01-04T18:00:55.764Z,102925.63
2019-01-04T18:03:24.974Z,102930.38
2019-01-04T18:05:54.146Z,102922.14
2019-01-04T18:08:23.285Z,102926.91
2019-01-04T18:10:52.866Z,102926.89
2019-01-04T18:13:22.081Z,102924.30
2019-01-04T18:15:51.234Z,102922.08
2019-01-04T18:18:20.620Z,102920.32
2019-01-04T18:20:49.918Z,102918.16
2019-01-04T18:23:19.189Z,102913.83
2019-01-04T18:25:48.371Z,102916.41
2019-01-04T18:28:17.706Z,102912.09
2019-01-04T18:30:46.939Z,102911.23
2019-01-04T18:33:16.076Z,102908.18
2019-01-04T18:35:45.283Z,102904.31
2019-01-04T18:38:14.530Z,102913.81
2019-01-04T18:40:43.749Z,102904.30
2019-01-04T18:43:13.023Z,102907.74
2019-01-04T18:45:42.189Z,102908.59
2019-01-04T18:48:12.408Z,102911.20
2019-01-04T18:50:42.135Z,102912.47
2019-01-04T18:53:11.464Z,102913.76
2019-01-04T18:55:40.802Z,102912.91
2019-01-04T18:58:10.020Z,102919.77
2019-01-04T19:00:39.247Z,102907.63
2019-01-04T19:03:08.444Z,102915.84
2019-01-04T19:05:37.646Z,102918.44
2019-01-04T19:08:06.951Z,102911.91
2019-01-04T19:10:36.116Z,102909.32
2019-01-04T19:13:05.319Z,102909.30
2019-01-04T19:15:34.484Z,102907.59
2019-01-04T19:18:03.813Z,102902.40
2019-01-04T19:20:33.089Z,102911.44
2019-01-04T19:23:02.561Z,102927.44
2019-01-04T19:25:31.878Z,102923.88
2019-01-04T19:28:02.246Z,102918.72
2019-01-04T19:30:31.650Z,102912.20
2019-01-04T19:33:01.677Z,102903.55
2019-01-04T19:35:31.165Z,102911.31
2019-01-04T19:38:00.439Z,102916.47
2019-01-04T19:40:29.817Z,102916.02
2019-01-04T19:42:59.147Z,102924.26
2019-01-04T19:45:30.783Z,102917.72
2019-01-04T19:48:00.322Z,102913.41
2019-01-04T19:50:30.018Z,102920.25
2019-01-04T19:52:59.375Z,102918.04
2019-01-04T19:55:28.617Z,102915.88
2019-01-04T19:57:58.324Z,102910.67
2019-01-04T20:00:27.938Z,102907.67
2019-01-04T20:02:57.300Z,102908.51
2019-01-04T20:06:32.470Z,102909.31
2019-01-04T20:09:56.826Z,102909.33
2019-01-04T20:13:23.843Z,102904.19
2019-01-04T20:16:40.402Z,102902.82
2019-01-04T20:19:32.380Z,102904.52
2019-01-04T20:22:22.805Z,102904.95
2019-01-04T20:25:14.356Z,102907.91
2019-01-04T20:28:02.220Z,102907.87
2019-01-04T20:30:47.771Z,102901.75
2019-01-04T20:33:40.351Z,102909.50
2019-01-04T20:36:27.232Z,102904.33
2019-01-04T20:39:14.483Z,102897.82
2019-01-04T20:42:15.095Z,102893.48
2019-01-04T20:45:02.109Z,102884.84
2019-01-04T20:47:48.843Z,102895.27
2019-01-04T20:50:42.882Z,102889.49
2019-01-04T20:53:29.597Z,102880.83
2019-01-04T20:56:16.780Z,102879.53
2019-01-04T20:59:06.194Z,102870.86
2019-01-04T21:02:03.361Z,102871.77
2019-01-04T21:04:57.570Z,102877.36
2019-01-04T21:07:49.664Z,102870.04
2019-01-04T21:10:53.717Z,102872.59
2019-01-04T21:13:58.534Z,102878.33
2019-01-04T21:16:45.111Z,102871.72
2019-01-04T21:19:33.049Z,102862.66
2019-01-04T21:22:21.612Z,102859.14
2019-01-04T21:25:08.370Z,102855.66
2019-01-04T21:28:03.057Z,102852.66
2019-01-04T21:30:50.191Z,102849.61
2019-01-04T21:33:37.578Z,102846.14
2019-01-04T21:36:24.610Z,102856.97
2019-01-04T21:39:25.305Z,102845.79
2019-01-04T21:42:22.652Z,102848.83
2019-01-04T21:45:22.946Z,102849.27
2019-01-04T21:48:10.919Z,102847.17
2019-01-04T21:50:57.944Z,102841.59
2019-01-04T21:53:55.689Z,102846.37
2019-01-04T21:56:42.565Z,102841.62
2019-01-04T21:59:34.835Z,102834.33
2019-01-04T22:02:25.783Z,102829.13
2019-01-04T22:05:14.624Z,102831.31
2019-01-04T22:08:02.776Z,102822.56
2019-01-04T22:10:49.774Z,102821.73
2019-01-04T22:13:46.980Z,102818.27
2019-01-04T22:16:44.314Z,102812.20
2019-01-04T22:19:47.334Z,102813.05
2019-01-04T22:22:36.879Z,102811.76
2019-01-04T22:25:25.112Z,102810.00
2019-01-04T22:28:11.866Z,102804.04
2019-01-04T22:31:14.842Z,102795.74
2019-01-04T22:34:02.202Z,102793.16
2019-01-04T22:37:02.860Z,102796.20
2019-01-04T22:40:04.743Z,102793.55
2019-01-04T22:43:04.917Z,102794.41
2019-01-04T22:45:52.028Z,102790.49
2019-01-04T22:48:42.403Z,102788.80
2019-01-04T22:51:29.206Z,102784.44
2019-01-04T22:54:35.532Z,102782.21
2019-01-04T22:57:29.070Z,102782.32
2019-01-04T23:00:15.939Z,102781.08
2019-01-04T23:03:22.670Z,102776.66
2019-01-04T23:06:22.467Z,102779.25
2019-01-04T23:09:13.498Z,102767.62
2019-01-04T23:12:16.378Z,102765.84
2019-01-04T23:15:09.368Z,102757.18
2019-01-04T23:18:06.599Z,102760.20
2019-01-04T23:20:53.372Z,102757.11
2019-01-04T23:23:40.452Z,102749.83
2019-01-04T23:26:27.437Z,102749.38
2019-01-04T23:29:24.839Z,102753.22
2019-01-04T23:32:16.437Z,102744.64
2019-01-04T23:35:03.390Z,102744.11
2019-01-04T23:38:02.143Z,102752.30
2019-01-04T23:40:53.417Z,102731.52
2019-01-04T23:43:40.276Z,102741.47
2019-01-04T23:46:24.960Z,102743.16
2019-01-04T23:49:09.015Z,102740.56
2019-01-04T23:51:57.216Z,102734.09
2019-01-04T23:54:34.775Z,102734.91
2019-01-04T23:57:32.157Z,102728.81
